Machigasta, Argentina
Current Conditions -  °F | °C
As of 4:00 PM on Thursday 23 Oct 2014 (Local Time) from SANT Reporting Station
Scattered Clouds Scattered Clouds  
Wind Chill: 88°   Ceiling: Unl
Heat Index: 88°   Visibility: 4mi
Dew Point: 63°   Wind: 9mph
Humidity: 43%   Direction: 230°SW
Pressure: 29.91"   Gusts: NA
Location:  28.55°S, 66.8°W
Report Text: SANT 231900Z 23008KT 6000 SCT035 SCT045TCUFEW050CB 31/17 Q1013
Loading
Personal Weather Stations






























Interactive Weather Map New forecast layout! Learn more

10-Day Weather Forecast

Advertisements
Track Severe Weather on mobile